sensor_id;sensor_type;location;lat;lon;timestamp;pressure;altitude;pressure_sealevel;temperature;humidity
43394;BME280;62479;62.642;17.954;2022-12-15T00:00:40;100205.36;;;-18.82;66.20
43394;BME280;62479;62.642;17.954;2022-12-15T00:03:09;100207.65;;;-18.87;66.15
43394;BME280;62479;62.642;17.954;2022-12-15T00:05:39;100203.78;;;-19.03;66.09
43394;BME280;62479;62.642;17.954;2022-12-15T00:08:09;100213.17;;;-18.98;66.17
43394;BME280;62479;62.642;17.954;2022-12-15T00:10:38;100214.41;;;-18.98;66.11
43394;BME280;62479;62.642;17.954;2022-12-15T00:13:09;100218.44;;;-19.05;65.99
43394;BME280;62479;62.642;17.954;2022-12-15T00:15:39;100221.18;;;-19.08;65.70
43394;BME280;62479;62.642;17.954;2022-12-15T00:18:09;100224.52;;;-19.10;65.59
43394;BME280;62479;62.642;17.954;2022-12-15T00:20:39;100219.70;;;-19.05;65.68
43394;BME280;62479;62.642;17.954;2022-12-15T00:23:10;100223.93;;;-19.16;65.76
43394;BME280;62479;62.642;17.954;2022-12-15T00:25:41;100225.95;;;-19.14;65.71
43394;BME280;62479;62.642;17.954;2022-12-15T00:28:10;100227.04;;;-19.06;65.57
43394;BME280;62479;62.642;17.954;2022-12-15T00:30:40;100224.51;;;-19.16;65.49
43394;BME280;62479;62.642;17.954;2022-12-15T00:33:10;100225.80;;;-19.18;65.35
43394;BME280;62479;62.642;17.954;2022-12-15T00:35:39;100224.44;;;-19.34;65.48
43394;BME280;62479;62.642;17.954;2022-12-15T00:38:10;100225.33;;;-19.32;65.65
43394;BME280;62479;62.642;17.954;2022-12-15T00:40:40;100223.35;;;-19.27;65.47
43394;BME280;62479;62.642;17.954;2022-12-15T00:43:10;100224.92;;;-19.32;65.45
43394;BME280;62479;62.642;17.954;2022-12-15T00:45:41;100226.85;;;-19.45;65.48
43394;BME280;62479;62.642;17.954;2022-12-15T00:48:12;100229.89;;;-19.47;65.47
43394;BME280;62479;62.642;17.954;2022-12-15T00:50:43;100228.44;;;-19.51;65.40
43394;BME280;62479;62.642;17.954;2022-12-15T00:53:13;100232.39;;;-19.52;65.28
43394;BME280;62479;62.642;17.954;2022-12-15T00:55:43;100230.86;;;-19.58;65.73
43394;BME280;62479;62.642;17.954;2022-12-15T00:58:13;100227.79;;;-19.51;65.89
43394;BME280;62479;62.642;17.954;2022-12-15T01:00:42;100228.46;;;-19.68;65.71
43394;BME280;62479;62.642;17.954;2022-12-15T01:03:14;100231.61;;;-19.79;65.75
43394;BME280;62479;62.642;17.954;2022-12-15T01:05:44;100236.29;;;-19.98;65.82
43394;BME280;62479;62.642;17.954;2022-12-15T01:08:14;100238.68;;;-20.05;65.87
43394;BME280;62479;62.642;17.954;2022-12-15T01:10:44;100239.55;;;-20.06;65.85
43394;BME280;62479;62.642;17.954;2022-12-15T01:13:13;100242.64;;;-20.28;65.88
43394;BME280;62479;62.642;17.954;2022-12-15T01:15:43;100243.16;;;-20.17;65.98
43394;BME280;62479;62.642;17.954;2022-12-15T01:18:13;100244.22;;;-20.20;66.06
43394;BME280;62479;62.642;17.954;2022-12-15T01:20:43;100246.87;;;-20.08;65.78
43394;BME280;62479;62.642;17.954;2022-12-15T01:23:13;100248.15;;;-20.31;65.74
43394;BME280;62479;62.642;17.954;2022-12-15T01:25:43;100249.44;;;-20.32;66.15
43394;BME280;62479;62.642;17.954;2022-12-15T01:28:13;100245.89;;;-20.28;66.23
43394;BME280;62479;62.642;17.954;2022-12-15T01:30:41;100244.47;;;-20.31;66.04
43394;BME280;62479;62.642;17.954;2022-12-15T01:33:11;100243.56;;;-20.41;65.93
43394;BME280;62479;62.642;17.954;2022-12-15T01:35:41;100245.21;;;-20.36;66.51
43394;BME280;62479;62.642;17.954;2022-12-15T01:38:11;100251.49;;;-20.49;66.76
43394;BME280;62479;62.642;17.954;2022-12-15T01:40:50;100256.76;;;-20.45;66.78
43394;BME280;62479;62.642;17.954;2022-12-15T01:43:22;100258.32;;;-20.46;66.74
43394;BME280;62479;62.642;17.954;2022-12-15T01:45:59;100266.71;;;-20.51;66.63
43394;BME280;62479;62.642;17.954;2022-12-15T01:48:33;100262.50;;;-20.44;66.69
43394;BME280;62479;62.642;17.954;2022-12-15T01:51:10;100257.93;;;-20.55;66.65
43394;BME280;62479;62.642;17.954;2022-12-15T01:53:44;100255.37;;;-20.52;66.50
43394;BME280;62479;62.642;17.954;2022-12-15T01:56:16;100249.30;;;-20.52;66.52
43394;BME280;62479;62.642;17.954;2022-12-15T01:58:48;100247.61;;;-20.52;66.51
43394;BME280;62479;62.642;17.954;2022-12-15T02:01:18;100244.66;;;-20.56;66.73
43394;BME280;62479;62.642;17.954;2022-12-15T02:03:48;100244.99;;;-20.42;66.85
43394;BME280;62479;62.642;17.954;2022-12-15T02:06:19;100248.71;;;-20.25;66.95
43394;BME280;62479;62.642;17.954;2022-12-15T02:08:51;100243.60;;;-20.08;66.53
43394;BME280;62479;62.642;17.954;2022-12-15T02:11:37;100241.79;;;-20.00;66.71
43394;BME280;62479;62.642;17.954;2022-12-15T02:14:11;100243.66;;;-19.89;67.13
43394;BME280;62479;62.642;17.954;2022-12-15T02:16:52;100239.96;;;-19.71;66.62
43394;BME280;62479;62.642;17.954;2022-12-15T02:19:42;100240.70;;;-19.69;66.15
43394;BME280;62479;62.642;17.954;2022-12-15T02:22:23;100249.61;;;-19.88;66.13
43394;BME280;62479;62.642;17.954;2022-12-15T02:25:09;100249.05;;;-19.99;66.16
43394;BME280;62479;62.642;17.954;2022-12-15T02:27:51;100253.14;;;-19.91;66.06
43394;BME280;62479;62.642;17.954;2022-12-15T02:30:29;100256.65;;;-19.92;66.28
43394;BME280;62479;62.642;17.954;2022-12-15T02:33:09;100254.72;;;-19.87;66.49
43394;BME280;62479;62.642;17.954;2022-12-15T02:35:46;100253.13;;;-19.85;66.63
43394;BME280;62479;62.642;17.954;2022-12-15T02:38:27;100248.67;;;-19.75;66.63
43394;BME280;62479;62.642;17.954;2022-12-15T02:40:57;100246.18;;;-19.89;66.66
43394;BME280;62479;62.642;17.954;2022-12-15T02:43:27;100248.00;;;-19.78;66.57
43394;BME280;62479;62.642;17.954;2022-12-15T02:46:07;100245.77;;;-19.76;66.85
43394;BME280;62479;62.642;17.954;2022-12-15T02:48:46;100248.44;;;-19.69;66.79
43394;BME280;62479;62.642;17.954;2022-12-15T02:51:30;100250.56;;;-19.91;66.81
43394;BME280;62479;62.642;17.954;2022-12-15T02:54:13;100251.59;;;-19.86;66.90
43394;BME280;62479;62.642;17.954;2022-12-15T02:56:57;100244.74;;;-19.89;67.05
43394;BME280;62479;62.642;17.954;2022-12-15T02:59:37;100242.85;;;-20.09;67.00
43394;BME280;62479;62.642;17.954;2022-12-15T03:02:11;100238.08;;;-19.95;67.27
43394;BME280;62479;62.642;17.954;2022-12-15T03:04:42;100233.77;;;-19.90;67.99
43394;BME280;62479;62.642;17.954;2022-12-15T03:07:12;100232.10;;;-19.65;68.28
43394;BME280;62479;62.642;17.954;2022-12-15T03:09:41;100235.44;;;-19.38;68.17
43394;BME280;62479;62.642;17.954;2022-12-15T03:12:10;100238.51;;;-19.08;68.29
43394;BME280;62479;62.642;17.954;2022-12-15T03:14:38;100241.71;;;-18.74;68.65
43394;BME280;62479;62.642;17.954;2022-12-15T03:17:06;100250.22;;;-18.46;68.49
43394;BME280;62479;62.642;17.954;2022-12-15T03:19:34;100255.48;;;-18.37;68.06
43394;BME280;62479;62.642;17.954;2022-12-15T03:22:03;100267.43;;;-18.34;67.63
43394;BME280;62479;62.642;17.954;2022-12-15T03:24:30;100268.22;;;-18.24;67.72
43394;BME280;62479;62.642;17.954;2022-12-15T03:26:58;100272.91;;;-18.29;67.69
43394;BME280;62479;62.642;17.954;2022-12-15T03:29:26;100276.76;;;-18.10;67.51
43394;BME280;62479;62.642;17.954;2022-12-15T03:31:54;100277.69;;;-18.15;67.19
43394;BME280;62479;62.642;17.954;2022-12-15T03:34:22;100279.68;;;-18.21;66.77
43394;BME280;62479;62.642;17.954;2022-12-15T03:36:50;100282.05;;;-18.33;66.56
43394;BME280;62479;62.642;17.954;2022-12-15T03:39:18;100287.05;;;-18.56;66.44
43394;BME280;62479;62.642;17.954;2022-12-15T03:41:47;100286.41;;;-18.62;66.38
43394;BME280;62479;62.642;17.954;2022-12-15T03:44:17;100294.14;;;-18.77;66.87
43394;BME280;62479;62.642;17.954;2022-12-15T03:46:47;100300.08;;;-18.86;67.07
43394;BME280;62479;62.642;17.954;2022-12-15T03:49:17;100300.25;;;-19.01;67.10
43394;BME280;62479;62.642;17.954;2022-12-15T03:51:47;100300.69;;;-19.01;67.00
43394;BME280;62479;62.642;17.954;2022-12-15T03:54:15;100305.90;;;-19.08;66.72
43394;BME280;62479;62.642;17.954;2022-12-15T03:56:43;100305.53;;;-19.27;66.44
43394;BME280;62479;62.642;17.954;2022-12-15T03:59:11;100302.09;;;-19.16;66.32
43394;BME280;62479;62.642;17.954;2022-12-15T04:01:44;100300.10;;;-19.16;65.83
43394;BME280;62479;62.642;17.954;2022-12-15T04:04:14;100296.96;;;-19.33;65.59
43394;BME280;62479;62.642;17.954;2022-12-15T04:06:42;100288.35;;;-19.37;65.35
43394;BME280;62479;62.642;17.954;2022-12-15T04:09:10;100293.21;;;-19.39;65.47
43394;BME280;62479;62.642;17.954;2022-12-15T04:11:38;100294.81;;;-19.37;65.23
43394;BME280;62479;62.642;17.954;2022-12-15T04:14:08;100297.54;;;-19.45;65.21
43394;BME280;62479;62.642;17.954;2022-12-15T04:16:36;100294.85;;;-19.49;65.32
43394;BME280;62479;62.642;17.954;2022-12-15T04:19:04;100296.26;;;-19.55;65.13
43394;BME280;62479;62.642;17.954;2022-12-15T04:21:32;100293.29;;;-19.63;65.35
43394;BME280;62479;62.642;17.954;2022-12-15T04:24:00;100289.42;;;-19.64;65.50
43394;BME280;62479;62.642;17.954;2022-12-15T04:26:28;100295.09;;;-19.76;66.18
43394;BME280;62479;62.642;17.954;2022-12-15T04:28:57;100293.53;;;-19.52;66.93
43394;BME280;62479;62.642;17.954;2022-12-15T04:31:27;100294.87;;;-19.38;66.84
43394;BME280;62479;62.642;17.954;2022-12-15T04:34:01;100293.91;;;-19.43;66.60
43394;BME280;62479;62.642;17.954;2022-12-15T04:36:32;100296.63;;;-19.40;66.65
43394;BME280;62479;62.642;17.954;2022-12-15T04:39:04;100293.89;;;-19.46;66.47
43394;BME280;62479;62.642;17.954;2022-12-15T04:41:33;100293.14;;;-19.46;66.38
43394;BME280;62479;62.642;17.954;2022-12-15T04:44:01;100292.65;;;-19.46;66.43
43394;BME280;62479;62.642;17.954;2022-12-15T04:46:29;100289.10;;;-19.51;66.55
43394;BME280;62479;62.642;17.954;2022-12-15T04:48:57;100285.86;;;-19.45;66.72
43394;BME280;62479;62.642;17.954;2022-12-15T04:51:25;100285.76;;;-19.40;67.16
43394;BME280;62479;62.642;17.954;2022-12-15T04:53:53;100288.07;;;-19.18;67.02
43394;BME280;62479;62.642;17.954;2022-12-15T04:56:23;100290.37;;;-19.08;67.06
43394;BME280;62479;62.642;17.954;2022-12-15T04:58:51;100289.08;;;-19.17;66.76
43394;BME280;62479;62.642;17.954;2022-12-15T05:03:16;100287.52;;;-19.26;66.59
43394;BME280;62479;62.642;17.954;2022-12-15T05:05:44;100285.88;;;-19.28;66.58
43394;BME280;62479;62.642;17.954;2022-12-15T05:08:12;100286.27;;;-19.29;66.92
43394;BME280;62479;62.642;17.954;2022-12-15T05:10:42;100284.86;;;-19.42;67.23
43394;BME280;62479;62.642;17.954;2022-12-15T05:13:10;100285.47;;;-19.15;67.32
43394;BME280;62479;62.642;17.954;2022-12-15T05:15:38;100287.16;;;-19.14;66.76
43394;BME280;62479;62.642;17.954;2022-12-15T05:18:06;100283.92;;;-18.99;67.16
43394;BME280;62479;62.642;17.954;2022-12-15T05:20:36;100289.41;;;-18.82;67.23
43394;BME280;62479;62.642;17.954;2022-12-15T05:23:04;100287.33;;;-18.90;66.66
43394;BME280;62479;62.642;17.954;2022-12-15T05:25:32;100282.01;;;-18.94;66.67
43394;BME280;62479;62.642;17.954;2022-12-15T05:28:05;100281.89;;;-18.96;66.51
43394;BME280;62479;62.642;17.954;2022-12-15T05:30:33;100285.90;;;-19.12;66.28
43394;BME280;62479;62.642;17.954;2022-12-15T05:33:03;100293.83;;;-19.23;66.96
43394;BME280;62479;62.642;17.954;2022-12-15T05:35:32;100297.53;;;-19.07;66.77
43394;BME280;62479;62.642;17.954;2022-12-15T05:38:01;100304.86;;;-19.21;66.58
43394;BME280;62479;62.642;17.954;2022-12-15T05:40:30;100309.52;;;-19.34;66.42
43394;BME280;62479;62.642;17.954;2022-12-15T05:42:59;100305.61;;;-19.30;66.70
43394;BME280;62479;62.642;17.954;2022-12-15T05:45:27;100301.08;;;-19.39;66.94
43394;BME280;62479;62.642;17.954;2022-12-15T05:47:55;100295.83;;;-19.31;67.27
43394;BME280;62479;62.642;17.954;2022-12-15T05:50:23;100294.19;;;-19.20;67.35
43394;BME280;62479;62.642;17.954;2022-12-15T05:52:51;100281.60;;;-19.13;67.03
43394;BME280;62479;62.642;17.954;2022-12-15T05:55:19;100275.05;;;-19.00;66.76
43394;BME280;62479;62.642;17.954;2022-12-15T05:57:50;100278.24;;;-18.98;67.17
43394;BME280;62479;62.642;17.954;2022-12-15T06:00:19;100280.94;;;-18.98;67.23
43394;BME280;62479;62.642;17.954;2022-12-15T06:02:48;100281.64;;;-19.07;67.15
